Details From EGSS - London Stansted
To LXGB - Gibraltar
Flight Number -
Tags Generated
Created
Modified
Stats Distance 975 nm / 1,806 km
Max Altitude 0 ft / 0 m
Waypoints 6
Social Downloads 0
Likes 0
Share VATSIM

Download

Looking for another format? Having issues loading an existing format? Contact us
Advertisement - Login to hide

Notes

Generated

Route

EGSS NTS28 NENEM KALMA BRIKE LXGB

ID Type Via Altitude Latitude Longitude Leg Dist Tot Dist Heading (true) Name
O EGSS APT - 0 ft / 0 m 51.87508˚ 0.21993˚ - 0 nm - -
NTS28 FIX - 0 ft / 0 m 47.62123˚ -1.75217˚ 266 nm 266 nm 197° / 196° -
NENEM FIX - 0 ft / 0 m 44.05139˚ -3.15028˚ 222 nm 488 nm 196° / 195° -
KALMA FIX - 0 ft / 0 m 40.41143˚ -4.29939˚ 224 nm 713 nm 194° / 193° -
BRIKE FIX - 0 ft / 0 m 36.50478˚ -5.41645˚ 240 nm 953 nm 193° / 192° -
O LXGB APT - 0 ft / 0 m 36.15080˚ -5.35977˚ 21 nm 975 nm 173° / 173° -

Altitude Profile

Advertisement - Login to hide

Weather


0- 5 10 15 20 25 30 35+ Temperature / ° C

Clouds and Precipitation
Forecast for 2017-12-11 18:00 UTC. Updated 2 hours ago

Ground ~20,000 ft ~40,000 ft Winds

EGSS

Details ICAO EGSS (STN)
Name London Stansted
Region United Kingdom
Timezone Europe/London (UTC+0.0)
Stats Elevation 348 ft / 106 m (AMSL)
Location 51.885097° 0.234962°
Runways 1
Magnetic Variation 0.364° W

METAR

EGSS 111920Z AUTO 32011KT 9999 NCD 00/M02 Q0991

Decode

TAF

TAF EGSS 111658Z 1118/1224 32010KT CAVOK BECMG 1121/1124 26006KT PROB30 1216/1221 6000 TEMPO 1221/1224 6000 -RA

Decode

Departure Runways

ID Width Length Bearing (true) Bearing (mag) Surface Threshold Offset Overrun Length
04 151 ft / 46 m 10,011 ft / 3,052 m 42.79° 43.15° Asphalt 994 ft / 303 m 0 ft / 0 m
22 151 ft / 46 m 10,011 ft / 3,052 m 222.81° 223.17° Asphalt 0 ft / 0 m 0 ft / 0 m

LXGB

Details ICAO LXGB (GIB)
Name Gibraltar
Region Gibralter
Timezone Europe/Gibraltar (UTC+1.0)
Stats Elevation 15 ft / 5 m (AMSL)
Location 36.151209° -5.349664°
Runways 1
Magnetic Variation 1.124° W

METAR

LXGB 111850Z AUTO 24011KT 9999 // NCD 14/07 Q1007

Decode

TAF

Not found

Destination Runways

ID Width Length Bearing (true) Bearing (mag) Surface Threshold Offset Overrun Length
27 151 ft / 46 m 5,992 ft / 1,826 m 267.56° 268.68° Asphalt 367 ft / 112 m 89 ft / 27 m
9 151 ft / 46 m 5,992 ft / 1,826 m 87.54° 88.66° Asphalt 299 ft / 91 m 52 ft / 16 m

Popular Alternatives